Terminal Aerodrome Forecast
Issued by NWS Tampa Bay Area, FL

Home | Current Version | Previous Version | Text Only | Print | Product List | Glossary On
Versions: 1 2 3 4 5 6 7 8 9 10 11 12 13 14
207
FTUS42 KTBW 251739
TAFFMY
TAF
KFMY 251739Z 2518/2618 09010KT P6SM SCT050
     FM252300 09009KT P6SM SCT050 SCT100
     FM260500 05006KT P6SM SKC
     FM261400 08009KT P6SM SCT035=

USA.gov is the U.S. government's official web portal to all federal, state and local government web resources and services.